sensor_id;sensor_type;location;lat;lon;timestamp;P1;durP1;ratioP1;P2;durP2;ratioP2
30896;SDS011;64229;52.246;21.054;2023-07-09T00:01:57;11.82;;;4.65;;
30896;SDS011;64229;52.246;21.054;2023-07-09T00:04:22;9.00;;;4.97;;
30896;SDS011;64229;52.246;21.054;2023-07-09T00:06:48;6.63;;;4.45;;
30896;SDS011;64229;52.246;21.054;2023-07-09T00:09:14;9.48;;;5.22;;
30896;SDS011;64229;52.246;21.054;2023-07-09T00:11:42;8.60;;;4.38;;
30896;SDS011;64229;52.246;21.054;2023-07-09T00:14:08;7.57;;;4.50;;
30896;SDS011;64229;52.246;21.054;2023-07-09T00:16:35;6.78;;;4.78;;
30896;SDS011;64229;52.246;21.054;2023-07-09T00:19:02;7.45;;;4.45;;
30896;SDS011;64229;52.246;21.054;2023-07-09T00:21:28;7.20;;;4.60;;
30896;SDS011;64229;52.246;21.054;2023-07-09T00:23:58;8.05;;;4.43;;
30896;SDS011;64229;52.246;21.054;2023-07-09T00:26:29;9.00;;;4.57;;
30896;SDS011;64229;52.246;21.054;2023-07-09T00:28:55;8.55;;;4.45;;
30896;SDS011;64229;52.246;21.054;2023-07-09T00:31:20;7.90;;;4.10;;
30896;SDS011;64229;52.246;21.054;2023-07-09T00:33:46;7.93;;;4.17;;
30896;SDS011;64229;52.246;21.054;2023-07-09T00:36:22;8.55;;;3.97;;
30896;SDS011;64229;52.246;21.054;2023-07-09T00:38:52;7.10;;;4.43;;
30896;SDS011;64229;52.246;21.054;2023-07-09T00:41:18;8.23;;;4.47;;
30896;SDS011;64229;52.246;21.054;2023-07-09T00:43:45;13.85;;;5.35;;
30896;SDS011;64229;52.246;21.054;2023-07-09T00:48:53;7.93;;;4.72;;
30896;SDS011;64229;52.246;21.054;2023-07-09T00:51:25;7.40;;;3.80;;
30896;SDS011;64229;52.246;21.054;2023-07-09T00:53:54;6.60;;;4.32;;
30896;SDS011;64229;52.246;21.054;2023-07-09T00:56:31;9.60;;;4.25;;
30896;SDS011;64229;52.246;21.054;2023-07-09T00:59:03;7.65;;;4.22;;
30896;SDS011;64229;52.246;21.054;2023-07-09T01:01:33;8.45;;;4.15;;
30896;SDS011;64229;52.246;21.054;2023-07-09T01:03:59;8.70;;;4.68;;
30896;SDS011;64229;52.246;21.054;2023-07-09T01:06:30;8.23;;;4.13;;
30896;SDS011;64229;52.246;21.054;2023-07-09T01:09:00;6.97;;;3.95;;
30896;SDS011;64229;52.246;21.054;2023-07-09T01:11:27;9.02;;;4.57;;
30896;SDS011;64229;52.246;21.054;2023-07-09T01:13:56;7.10;;;3.55;;
30896;SDS011;64229;52.246;21.054;2023-07-09T01:16:27;5.20;;;3.90;;
30896;SDS011;64229;52.246;21.054;2023-07-09T01:18:55;7.97;;;4.00;;
30896;SDS011;64229;52.246;21.054;2023-07-09T01:21:20;10.53;;;3.83;;
30896;SDS011;64229;52.246;21.054;2023-07-09T01:23:46;6.18;;;4.13;;
30896;SDS011;64229;52.246;21.054;2023-07-09T01:26:14;6.50;;;4.10;;
30896;SDS011;64229;52.246;21.054;2023-07-09T01:28:42;5.85;;;4.05;;
30896;SDS011;64229;52.246;21.054;2023-07-09T01:31:11;5.78;;;3.95;;
30896;SDS011;64229;52.246;21.054;2023-07-09T01:33:38;6.88;;;3.80;;
30896;SDS011;64229;52.246;21.054;2023-07-09T01:36:06;7.45;;;3.47;;
30896;SDS011;64229;52.246;21.054;2023-07-09T01:38:33;6.20;;;4.00;;
30896;SDS011;64229;52.246;21.054;2023-07-09T01:40:58;7.00;;;3.75;;
30896;SDS011;64229;52.246;21.054;2023-07-09T01:43:25;7.55;;;4.38;;
30896;SDS011;64229;52.246;21.054;2023-07-09T01:45:51;8.40;;;4.35;;
30896;SDS011;64229;52.246;21.054;2023-07-09T01:48:17;7.18;;;3.75;;
30896;SDS011;64229;52.246;21.054;2023-07-09T01:50:45;7.47;;;4.03;;
30896;SDS011;64229;52.246;21.054;2023-07-09T01:53:14;9.43;;;4.03;;
30896;SDS011;64229;52.246;21.054;2023-07-09T01:55:42;6.78;;;4.03;;
30896;SDS011;64229;52.246;21.054;2023-07-09T01:58:08;12.00;;;4.05;;
30896;SDS011;64229;52.246;21.054;2023-07-09T02:00:33;8.13;;;4.35;;
30896;SDS011;64229;52.246;21.054;2023-07-09T02:03:00;5.97;;;3.50;;
30896;SDS011;64229;52.246;21.054;2023-07-09T02:05:27;7.00;;;4.40;;
30896;SDS011;64229;52.246;21.054;2023-07-09T02:07:56;9.70;;;4.18;;
30896;SDS011;64229;52.246;21.054;2023-07-09T02:10:21;5.53;;;4.07;;
30896;SDS011;64229;52.246;21.054;2023-07-09T02:12:47;6.97;;;4.00;;
30896;SDS011;64229;52.246;21.054;2023-07-09T02:15:13;6.25;;;3.58;;
30896;SDS011;64229;52.246;21.054;2023-07-09T02:17:39;8.10;;;4.32;;
30896;SDS011;64229;52.246;21.054;2023-07-09T02:20:05;9.05;;;4.43;;
30896;SDS011;64229;52.246;21.054;2023-07-09T02:22:32;5.93;;;4.18;;
30896;SDS011;64229;52.246;21.054;2023-07-09T02:24:58;9.73;;;5.32;;
30896;SDS011;64229;52.246;21.054;2023-07-09T02:27:23;6.93;;;4.07;;
30896;SDS011;64229;52.246;21.054;2023-07-09T02:29:49;9.90;;;3.70;;
30896;SDS011;64229;52.246;21.054;2023-07-09T02:32:17;8.10;;;4.53;;
30896;SDS011;64229;52.246;21.054;2023-07-09T02:34:47;7.72;;;4.32;;
30896;SDS011;64229;52.246;21.054;2023-07-09T02:37:18;7.85;;;4.78;;
30896;SDS011;64229;52.246;21.054;2023-07-09T02:39:44;7.30;;;4.47;;
30896;SDS011;64229;52.246;21.054;2023-07-09T02:42:10;6.37;;;4.50;;
30896;SDS011;64229;52.246;21.054;2023-07-09T02:44:36;8.05;;;4.60;;
30896;SDS011;64229;52.246;21.054;2023-07-09T02:47:02;9.60;;;4.90;;
30896;SDS011;64229;52.246;21.054;2023-07-09T02:49:28;7.65;;;4.53;;
30896;SDS011;64229;52.246;21.054;2023-07-09T02:51:53;5.53;;;4.47;;
30896;SDS011;64229;52.246;21.054;2023-07-09T02:54:18;8.13;;;4.97;;
30896;SDS011;64229;52.246;21.054;2023-07-09T02:56:43;10.47;;;4.80;;
30896;SDS011;64229;52.246;21.054;2023-07-09T02:59:09;8.35;;;5.30;;
30896;SDS011;64229;52.246;21.054;2023-07-09T03:01:34;8.65;;;4.68;;
30896;SDS011;64229;52.246;21.054;2023-07-09T03:04:00;9.60;;;4.75;;
30896;SDS011;64229;52.246;21.054;2023-07-09T03:06:27;11.13;;;4.43;;
30896;SDS011;64229;52.246;21.054;2023-07-09T03:08:52;8.55;;;4.63;;
30896;SDS011;64229;52.246;21.054;2023-07-09T03:11:18;8.93;;;4.75;;
30896;SDS011;64229;52.246;21.054;2023-07-09T03:13:45;10.20;;;5.15;;
30896;SDS011;64229;52.246;21.054;2023-07-09T03:16:11;9.40;;;5.18;;
30896;SDS011;64229;52.246;21.054;2023-07-09T03:18:37;9.40;;;4.75;;
30896;SDS011;64229;52.246;21.054;2023-07-09T03:21:03;7.50;;;4.43;;
30896;SDS011;64229;52.246;21.054;2023-07-09T03:23:29;8.90;;;4.90;;
30896;SDS011;64229;52.246;21.054;2023-07-09T03:25:54;9.45;;;4.80;;
30896;SDS011;64229;52.246;21.054;2023-07-09T03:28:20;7.07;;;4.40;;
30896;SDS011;64229;52.246;21.054;2023-07-09T03:30:47;7.65;;;4.63;;
30896;SDS011;64229;52.246;21.054;2023-07-09T03:33:13;7.50;;;5.00;;
30896;SDS011;64229;52.246;21.054;2023-07-09T03:35:40;7.38;;;4.43;;
30896;SDS011;64229;52.246;21.054;2023-07-09T03:38:06;7.47;;;4.90;;
30896;SDS011;64229;52.246;21.054;2023-07-09T03:40:33;7.65;;;4.82;;
30896;SDS011;64229;52.246;21.054;2023-07-09T03:42:59;6.78;;;4.75;;
30896;SDS011;64229;52.246;21.054;2023-07-09T03:45:25;6.57;;;4.75;;
30896;SDS011;64229;52.246;21.054;2023-07-09T03:47:50;9.48;;;4.63;;
30896;SDS011;64229;52.246;21.054;2023-07-09T03:50:16;8.57;;;4.75;;
30896;SDS011;64229;52.246;21.054;2023-07-09T03:52:41;6.68;;;4.60;;
30896;SDS011;64229;52.246;21.054;2023-07-09T03:55:07;7.25;;;4.28;;
30896;SDS011;64229;52.246;21.054;2023-07-09T03:57:32;7.05;;;4.63;;
30896;SDS011;64229;52.246;21.054;2023-07-09T03:59:58;7.03;;;4.10;;
30896;SDS011;64229;52.246;21.054;2023-07-09T04:02:24;6.80;;;4.07;;
30896;SDS011;64229;52.246;21.054;2023-07-09T04:04:49;8.53;;;4.27;;
30896;SDS011;64229;52.246;21.054;2023-07-09T04:07:14;6.80;;;4.25;;
30896;SDS011;64229;52.246;21.054;2023-07-09T04:09:40;6.97;;;4.07;;
30896;SDS011;64229;52.246;21.054;2023-07-09T04:12:06;5.25;;;3.90;;
30896;SDS011;64229;52.246;21.054;2023-07-09T04:14:33;5.53;;;3.95;;
30896;SDS011;64229;52.246;21.054;2023-07-09T04:16:59;6.57;;;3.53;;
30896;SDS011;64229;52.246;21.054;2023-07-09T04:19:24;8.07;;;4.10;;
30896;SDS011;64229;52.246;21.054;2023-07-09T04:21:49;6.50;;;3.75;;
30896;SDS011;64229;52.246;21.054;2023-07-09T04:24:16;8.83;;;3.80;;
30896;SDS011;64229;52.246;21.054;2023-07-09T04:26:42;6.78;;;4.07;;
30896;SDS011;64229;52.246;21.054;2023-07-09T04:29:07;7.05;;;3.55;;
30896;SDS011;64229;52.246;21.054;2023-07-09T04:31:33;5.97;;;3.42;;
30896;SDS011;64229;52.246;21.054;2023-07-09T04:33:58;9.00;;;3.75;;
30896;SDS011;64229;52.246;21.054;2023-07-09T04:36:24;6.22;;;3.28;;
30896;SDS011;64229;52.246;21.054;2023-07-09T04:38:51;6.68;;;3.40;;
30896;SDS011;64229;52.246;21.054;2023-07-09T04:41:16;6.03;;;3.33;;
30896;SDS011;64229;52.246;21.054;2023-07-09T04:43:41;5.03;;;3.20;;
30896;SDS011;64229;52.246;21.054;2023-07-09T04:46:07;5.13;;;3.23;;
30896;SDS011;64229;52.246;21.054;2023-07-09T04:48:32;5.55;;;3.50;;
30896;SDS011;64229;52.246;21.054;2023-07-09T04:50:57;7.07;;;3.50;;
30896;SDS011;64229;52.246;21.054;2023-07-09T04:53:24;6.85;;;3.78;;
30896;SDS011;64229;52.246;21.054;2023-07-09T04:55:49;5.77;;;3.33;;
30896;SDS011;64229;52.246;21.054;2023-07-09T04:58:15;6.00;;;3.27;;
30896;SDS011;64229;52.246;21.054;2023-07-09T05:00:41;6.38;;;3.35;;
30896;SDS011;64229;52.246;21.054;2023-07-09T05:03:07;7.25;;;3.22;;
30896;SDS011;64229;52.246;21.054;2023-07-09T05:05:32;7.70;;;3.35;;
30896;SDS011;64229;52.246;21.054;2023-07-09T05:07:58;11.82;;;3.67;;
30896;SDS011;64229;52.246;21.054;2023-07-09T05:10:23;6.78;;;3.20;;
30896;SDS011;64229;52.246;21.054;2023-07-09T05:12:53;6.03;;;2.97;;
30896;SDS011;64229;52.246;21.054;2023-07-09T05:15:20;5.80;;;2.78;;
30896;SDS011;64229;52.246;21.054;2023-07-09T05:17:47;4.95;;;2.70;;
30896;SDS011;64229;52.246;21.054;2023-07-09T05:20:13;4.03;;;2.85;;
30896;SDS011;64229;52.246;21.054;2023-07-09T05:22:39;6.68;;;3.00;;
30896;SDS011;64229;52.246;21.054;2023-07-09T05:25:04;6.45;;;2.97;;
30896;SDS011;64229;52.246;21.054;2023-07-09T05:27:30;5.55;;;2.65;;
30896;SDS011;64229;52.246;21.054;2023-07-09T05:29:55;6.33;;;2.70;;
30896;SDS011;64229;52.246;21.054;2023-07-09T05:32:20;4.47;;;2.60;;
30896;SDS011;64229;52.246;21.054;2023-07-09T05:34:46;5.83;;;2.60;;
30896;SDS011;64229;52.246;21.054;2023-07-09T05:37:11;4.57;;;2.60;;
30896;SDS011;64229;52.246;21.054;2023-07-09T05:39:36;5.17;;;2.90;;
30896;SDS011;64229;52.246;21.054;2023-07-09T05:42:01;3.43;;;2.43;;
30896;SDS011;64229;52.246;21.054;2023-07-09T05:44:27;5.35;;;2.70;;
30896;SDS011;64229;52.246;21.054;2023-07-09T05:46:52;7.63;;;2.60;;
30896;SDS011;64229;52.246;21.054;2023-07-09T05:49:17;4.82;;;2.40;;
30896;SDS011;64229;52.246;21.054;2023-07-09T05:51:43;4.30;;;2.53;;
30896;SDS011;64229;52.246;21.054;2023-07-09T05:54:08;6.30;;;2.80;;
30896;SDS011;64229;52.246;21.054;2023-07-09T05:56:33;3.97;;;2.22;;
30896;SDS011;64229;52.246;21.054;2023-07-09T05:58:59;3.43;;;2.37;;
30896;SDS011;64229;52.246;21.054;2023-07-09T06:01:24;5.78;;;2.60;;
30896;SDS011;64229;52.246;21.054;2023-07-09T06:03:50;6.15;;;2.50;;
30896;SDS011;64229;52.246;21.054;2023-07-09T06:06:15;4.90;;;2.50;;
30896;SDS011;64229;52.246;21.054;2023-07-09T06:08:41;5.50;;;2.72;;
30896;SDS011;64229;52.246;21.054;2023-07-09T06:11:06;5.93;;;2.60;;
30896;SDS011;64229;52.246;21.054;2023-07-09T06:13:32;7.32;;;3.13;;
30896;SDS011;64229;52.246;21.054;2023-07-09T06:15:57;4.70;;;2.50;;
30896;SDS011;64229;52.246;21.054;2023-07-09T06:18:24;4.72;;;2.63;;
30896;SDS011;64229;52.246;21.054;2023-07-09T06:20:54;4.65;;;2.38;;
30896;SDS011;64229;52.246;21.054;2023-07-09T06:23:21;3.40;;;2.30;;
30896;SDS011;64229;52.246;21.054;2023-07-09T06:25:47;4.63;;;2.60;;
30896;SDS011;64229;52.246;21.054;2023-07-09T06:28:14;3.72;;;2.17;;
30896;SDS011;64229;52.246;21.054;2023-07-09T06:30:40;5.97;;;2.53;;
30896;SDS011;64229;52.246;21.054;2023-07-09T06:33:05;4.22;;;2.30;;
30896;SDS011;64229;52.246;21.054;2023-07-09T06:35:31;4.07;;;2.10;;
30896;SDS011;64229;52.246;21.054;2023-07-09T06:37:57;4.82;;;2.63;;
30896;SDS011;64229;52.246;21.054;2023-07-09T06:40:22;5.32;;;2.40;;
30896;SDS011;64229;52.246;21.054;2023-07-09T06:42:49;4.47;;;2.40;;
30896;SDS011;64229;52.246;21.054;2023-07-09T06:45:15;4.63;;;2.28;;
30896;SDS011;64229;52.246;21.054;2023-07-09T06:47:40;3.90;;;2.47;;
30896;SDS011;64229;52.246;21.054;2023-07-09T06:50:06;4.28;;;2.30;;
30896;SDS011;64229;52.246;21.054;2023-07-09T06:52:31;3.42;;;2.25;;
30896;SDS011;64229;52.246;21.054;2023-07-09T06:54:56;4.50;;;2.10;;
30896;SDS011;64229;52.246;21.054;2023-07-09T06:57:22;7.60;;;3.00;;
30896;SDS011;64229;52.246;21.054;2023-07-09T06:59:47;3.80;;;1.97;;
30896;SDS011;64229;52.246;21.054;2023-07-09T07:02:12;4.40;;;2.10;;
30896;SDS011;64229;52.246;21.054;2023-07-09T07:04:37;3.73;;;1.90;;
30896;SDS011;64229;52.246;21.054;2023-07-09T07:07:03;2.83;;;1.98;;
30896;SDS011;64229;52.246;21.054;2023-07-09T07:09:28;10.75;;;2.70;;
30896;SDS011;64229;52.246;21.054;2023-07-09T07:11:53;3.45;;;2.00;;
30896;SDS011;64229;52.246;21.054;2023-07-09T07:14:19;5.22;;;2.30;;
30896;SDS011;64229;52.246;21.054;2023-07-09T07:16:44;4.00;;;2.13;;
30896;SDS011;64229;52.246;21.054;2023-07-09T07:19:09;3.60;;;1.97;;
30896;SDS011;64229;52.246;21.054;2023-07-09T07:21:34;3.60;;;1.63;;
30896;SDS011;64229;52.246;21.054;2023-07-09T07:24:00;3.27;;;1.47;;
30896;SDS011;64229;52.246;21.054;2023-07-09T07:26:25;6.50;;;2.03;;
30896;SDS011;64229;52.246;21.054;2023-07-09T07:28:50;4.40;;;2.33;;
30896;SDS011;64229;52.246;21.054;2023-07-09T07:31:16;2.97;;;1.83;;
30896;SDS011;64229;52.246;21.054;2023-07-09T07:33:42;5.18;;;2.13;;
30896;SDS011;64229;52.246;21.054;2023-07-09T07:36:07;3.23;;;2.00;;
30896;SDS011;64229;52.246;21.054;2023-07-09T07:38:33;6.43;;;2.13;;
30896;SDS011;64229;52.246;21.054;2023-07-09T07:40:59;5.67;;;2.30;;
30896;SDS011;64229;52.246;21.054;2023-07-09T07:43:25;4.00;;;2.08;;
30896;SDS011;64229;52.246;21.054;2023-07-09T07:45:51;2.50;;;1.77;;
30896;SDS011;64229;52.246;21.054;2023-07-09T07:48:16;4.17;;;1.87;;
30896;SDS011;64229;52.246;21.054;2023-07-09T07:50:41;4.57;;;2.30;;
30896;SDS011;64229;52.246;21.054;2023-07-09T07:53:07;3.57;;;1.57;;
30896;SDS011;64229;52.246;21.054;2023-07-09T07:55:33;4.28;;;1.70;;
30896;SDS011;64229;52.246;21.054;2023-07-09T07:58:00;2.78;;;1.90;;
30896;SDS011;64229;52.246;21.054;2023-07-09T08:00:27;2.45;;;1.70;;
30896;SDS011;64229;52.246;21.054;2023-07-09T08:02:53;6.78;;;2.05;;
30896;SDS011;64229;52.246;21.054;2023-07-09T08:05:18;4.47;;;1.80;;
30896;SDS011;64229;52.246;21.054;2023-07-09T08:07:44;3.17;;;1.52;;
30896;SDS011;64229;52.246;21.054;2023-07-09T08:10:10;3.42;;;1.80;;
30896;SDS011;64229;52.246;21.054;2023-07-09T08:12:36;3.30;;;1.90;;
30896;SDS011;64229;52.246;21.054;2023-07-09T08:15:02;4.53;;;2.22;;
30896;SDS011;64229;52.246;21.054;2023-07-09T08:17:27;2.60;;;1.75;;
30896;SDS011;64229;52.246;21.054;2023-07-09T08:19:53;4.37;;;2.33;;
30896;SDS011;64229;52.246;21.054;2023-07-09T08:22:19;5.03;;;2.90;;
30896;SDS011;64229;52.246;21.054;2023-07-09T08:24:46;4.93;;;2.90;;
30896;SDS011;64229;52.246;21.054;2023-07-09T08:27:12;3.55;;;2.13;;
30896;SDS011;64229;52.246;21.054;2023-07-09T08:29:37;3.65;;;2.30;;
30896;SDS011;64229;52.246;21.054;2023-07-09T08:32:03;3.83;;;2.53;;
30896;SDS011;64229;52.246;21.054;2023-07-09T08:34:29;3.33;;;2.03;;
30896;SDS011;64229;52.246;21.054;2023-07-09T08:36:54;6.30;;;2.47;;
30896;SDS011;64229;52.246;21.054;2023-07-09T08:39:19;5.13;;;2.60;;
30896;SDS011;64229;52.246;21.054;2023-07-09T08:41:47;3.63;;;1.70;;
30896;SDS011;64229;52.246;21.054;2023-07-09T08:52:31;3.33;;;2.03;;
30896;SDS011;64229;52.246;21.054;2023-07-09T08:55:01;5.57;;;2.15;;
30896;SDS011;64229;52.246;21.054;2023-07-09T08:57:34;3.47;;;1.85;;
30896;SDS011;64229;52.246;21.054;2023-07-09T09:02:44;2.78;;;1.70;;
30896;SDS011;64229;52.246;21.054;2023-07-09T09:05:19;5.72;;;2.33;;
30896;SDS011;64229;52.246;21.054;2023-07-09T09:07:47;4.07;;;2.30;;
30896;SDS011;64229;52.246;21.054;2023-07-09T09:10:21;5.78;;;2.08;;
30896;SDS011;64229;52.246;21.054;2023-07-09T09:13:13;3.40;;;1.88;;
30896;SDS011;64229;52.246;21.054;2023-07-09T09:15:41;4.30;;;2.08;;
30896;SDS011;64229;52.246;21.054;2023-07-09T09:21:36;3.05;;;1.83;;
30896;SDS011;64229;52.246;21.054;2023-07-09T09:23:51;5.10;;;2.08;;
30896;SDS011;64229;52.246;21.054;2023-07-09T09:26:24;8.13;;;2.60;;
30896;SDS011;64229;52.246;21.054;2023-07-09T09:28:49;4.80;;;2.20;;
30896;SDS011;64229;52.246;21.054;2023-07-09T09:31:15;6.03;;;1.90;;
30896;SDS011;64229;52.246;21.054;2023-07-09T09:33:42;3.25;;;2.20;;
30896;SDS011;64229;52.246;21.054;2023-07-09T09:36:20;3.63;;;1.85;;
30896;SDS011;64229;52.246;21.054;2023-07-09T09:38:47;4.70;;;1.88;;
30896;SDS011;64229;52.246;21.054;2023-07-09T09:41:17;3.30;;;1.65;;
30896;SDS011;64229;52.246;21.054;2023-07-09T09:43:47;4.45;;;2.33;;
30896;SDS011;64229;52.246;21.054;2023-07-09T09:46:17;5.30;;;2.30;;
30896;SDS011;64229;52.246;21.054;2023-07-09T09:48:48;3.67;;;2.00;;
30896;SDS011;64229;52.246;21.054;2023-07-09T09:51:16;3.80;;;2.05;;
30896;SDS011;64229;52.246;21.054;2023-07-09T09:53:52;5.47;;;2.05;;
30896;SDS011;64229;52.246;21.054;2023-07-09T09:56:33;6.63;;;2.05;;
30896;SDS011;64229;52.246;21.054;2023-07-09T09:59:00;3.28;;;1.98;;
30896;SDS011;64229;52.246;21.054;2023-07-09T10:01:28;3.80;;;1.77;;
30896;SDS011;64229;52.246;21.054;2023-07-09T10:04:00;3.25;;;1.77;;
30896;SDS011;64229;52.246;21.054;2023-07-09T10:06:36;3.80;;;1.90;;
30896;SDS011;64229;52.246;21.054;2023-07-09T10:09:15;3.50;;;2.08;;
30896;SDS011;64229;52.246;21.054;2023-07-09T10:11:45;4.10;;;2.00;;
30896;SDS011;64229;52.246;21.054;2023-07-09T10:14:22;2.97;;;1.70;;
30896;SDS011;64229;52.246;21.054;2023-07-09T10:16:58;3.78;;;1.80;;
30896;SDS011;64229;52.246;21.054;2023-07-09T10:19:39;5.15;;;2.20;;
30896;SDS011;64229;52.246;21.054;2023-07-09T10:22:28;5.05;;;2.45;;
30896;SDS011;64229;52.246;21.054;2023-07-09T10:33:10;4.82;;;2.47;;
30896;SDS011;64229;52.246;21.054;2023-07-09T10:35:41;9.23;;;3.05;;
30896;SDS011;64229;52.246;21.054;2023-07-09T10:38:37;5.03;;;2.17;;
30896;SDS011;64229;52.246;21.054;2023-07-09T10:41:11;4.80;;;2.72;;
30896;SDS011;64229;52.246;21.054;2023-07-09T10:46:13;5.90;;;2.72;;
30896;SDS011;64229;52.246;21.054;2023-07-09T10:48:42;3.85;;;2.17;;
30896;SDS011;64229;52.246;21.054;2023-07-09T10:51:23;3.00;;;1.88;;
30896;SDS011;64229;52.246;21.054;2023-07-09T10:53:55;4.88;;;2.58;;
30896;SDS011;64229;52.246;21.054;2023-07-09T10:56:25;4.40;;;2.33;;
30896;SDS011;64229;52.246;21.054;2023-07-09T11:01:54;5.70;;;2.50;;
30896;SDS011;64229;52.246;21.054;2023-07-09T11:04:36;6.35;;;3.17;;
30896;SDS011;64229;52.246;21.054;2023-07-09T11:09:37;4.70;;;2.47;;
30896;SDS011;64229;52.246;21.054;2023-07-09T11:12:17;3.78;;;2.00;;
30896;SDS011;64229;52.246;21.054;2023-07-09T11:14:50;3.05;;;1.80;;
30896;SDS011;64229;52.246;21.054;2023-07-09T11:17:25;3.60;;;1.95;;
30896;SDS011;64229;52.246;21.054;2023-07-09T11:19:56;4.88;;;2.38;;
30896;SDS011;64229;52.246;21.054;2023-07-09T11:22:26;5.70;;;2.42;;
30896;SDS011;64229;52.246;21.054;2023-07-09T11:25:11;6.35;;;2.33;;
30896;SDS011;64229;52.246;21.054;2023-07-09T11:28:11;3.78;;;2.10;;
30896;SDS011;64229;52.246;21.054;2023-07-09T11:30:31;4.10;;;2.40;;
30896;SDS011;64229;52.246;21.054;2023-07-09T11:33:15;6.10;;;2.70;;
30896;SDS011;64229;52.246;21.054;2023-07-09T11:35:47;3.70;;;2.13;;
30896;SDS011;64229;52.246;21.054;2023-07-09T11:38:23;4.18;;;2.20;;
30896;SDS011;64229;52.246;21.054;2023-07-09T11:40:50;4.40;;;2.15;;
30896;SDS011;64229;52.246;21.054;2023-07-09T11:43:33;4.82;;;2.42;;
30896;SDS011;64229;52.246;21.054;2023-07-09T11:46:06;4.45;;;2.30;;
30896;SDS011;64229;52.246;21.054;2023-07-09T11:48:36;5.55;;;2.33;;
30896;SDS011;64229;52.246;21.054;2023-07-09T11:51:08;4.35;;;2.47;;
30896;SDS011;64229;52.246;21.054;2023-07-09T11:56:20;8.20;;;2.92;;
30896;SDS011;64229;52.246;21.054;2023-07-09T11:58:47;4.82;;;2.40;;
30896;SDS011;64229;52.246;21.054;2023-07-09T12:01:14;5.85;;;2.70;;
30896;SDS011;64229;52.246;21.054;2023-07-09T12:03:42;5.28;;;2.75;;
30896;SDS011;64229;52.246;21.054;2023-07-09T12:06:17;3.92;;;2.03;;
30896;SDS011;64229;52.246;21.054;2023-07-09T12:08:46;4.57;;;2.38;;
30896;SDS011;64229;52.246;21.054;2023-07-09T12:11:30;6.53;;;2.83;;
30896;SDS011;64229;52.246;21.054;2023-07-09T12:19:01;4.82;;;2.47;;
30896;SDS011;64229;52.246;21.054;2023-07-09T12:21:26;4.50;;;2.40;;
30896;SDS011;64229;52.246;21.054;2023-07-09T12:23:52;6.93;;;2.53;;
30896;SDS011;64229;52.246;21.054;2023-07-09T12:26:19;7.20;;;2.90;;
30896;SDS011;64229;52.246;21.054;2023-07-09T12:28:51;4.93;;;2.72;;
30896;SDS011;64229;52.246;21.054;2023-07-09T12:31:25;5.20;;;2.60;;
30896;SDS011;64229;52.246;21.054;2023-07-09T12:33:53;3.75;;;2.17;;
30896;SDS011;64229;52.246;21.054;2023-07-09T12:36:20;4.38;;;2.30;;
30896;SDS011;64229;52.246;21.054;2023-07-09T12:38:47;4.40;;;2.50;;
30896;SDS011;64229;52.246;21.054;2023-07-09T12:44:08;5.13;;;2.75;;
30896;SDS011;64229;52.246;21.054;2023-07-09T12:46:41;3.85;;;1.98;;
30896;SDS011;64229;52.246;21.054;2023-07-09T12:49:07;5.65;;;2.47;;
30896;SDS011;64229;52.246;21.054;2023-07-09T12:51:32;4.63;;;2.13;;
30896;SDS011;64229;52.246;21.054;2023-07-09T12:54:14;3.75;;;2.38;;
30896;SDS011;64229;52.246;21.054;2023-07-09T12:56:44;3.83;;;2.20;;
30896;SDS011;64229;52.246;21.054;2023-07-09T12:59:17;3.65;;;1.98;;
30896;SDS011;64229;52.246;21.054;2023-07-09T13:02:06;5.07;;;2.25;;
30896;SDS011;64229;52.246;21.054;2023-07-09T13:04:40;3.95;;;2.10;;
30896;SDS011;64229;52.246;21.054;2023-07-09T13:07:24;4.63;;;2.70;;
30896;SDS011;64229;52.246;21.054;2023-07-09T13:09:50;4.53;;;2.13;;
30896;SDS011;64229;52.246;21.054;2023-07-09T13:12:17;3.13;;;1.80;;
30896;SDS011;64229;52.246;21.054;2023-07-09T13:14:46;2.70;;;1.65;;
30896;SDS011;64229;52.246;21.054;2023-07-09T13:19:43;4.07;;;2.17;;
30896;SDS011;64229;52.246;21.054;2023-07-09T13:22:10;3.60;;;2.10;;
30896;SDS011;64229;52.246;21.054;2023-07-09T13:24:38;4.65;;;2.33;;
30896;SDS011;64229;52.246;21.054;2023-07-09T13:27:04;3.90;;;2.47;;
30896;SDS011;64229;52.246;21.054;2023-07-09T13:29:30;5.38;;;2.70;;
30896;SDS011;64229;52.246;21.054;2023-07-09T13:31:56;4.32;;;2.30;;
30896;SDS011;64229;52.246;21.054;2023-07-09T13:34:23;4.63;;;2.08;;
30896;SDS011;64229;52.246;21.054;2023-07-09T13:36:50;4.03;;;1.90;;
30896;SDS011;64229;52.246;21.054;2023-07-09T13:39:18;3.65;;;1.98;;
30896;SDS011;64229;52.246;21.054;2023-07-09T13:41:45;4.38;;;1.92;;
30896;SDS011;64229;52.246;21.054;2023-07-09T13:44:13;5.18;;;2.28;;
30896;SDS011;64229;52.246;21.054;2023-07-09T13:46:40;6.20;;;2.42;;
30896;SDS011;64229;52.246;21.054;2023-07-09T13:49:10;4.45;;;2.10;;
30896;SDS011;64229;52.246;21.054;2023-07-09T13:51:43;5.60;;;2.60;;
30896;SDS011;64229;52.246;21.054;2023-07-09T13:54:21;5.63;;;2.58;;
30896;SDS011;64229;52.246;21.054;2023-07-09T13:57:00;8.95;;;3.45;;
30896;SDS011;64229;52.246;21.054;2023-07-09T13:59:30;5.28;;;2.58;;
30896;SDS011;64229;52.246;21.054;2023-07-09T14:01:56;7.20;;;2.80;;
30896;SDS011;64229;52.246;21.054;2023-07-09T14:04:23;7.45;;;3.30;;
30896;SDS011;64229;52.246;21.054;2023-07-09T14:06:50;7.72;;;3.25;;
30896;SDS011;64229;52.246;21.054;2023-07-09T14:09:15;7.78;;;3.42;;
30896;SDS011;64229;52.246;21.054;2023-07-09T14:11:43;6.50;;;2.53;;
30896;SDS011;64229;52.246;21.054;2023-07-09T14:14:17;8.25;;;3.17;;
30896;SDS011;64229;52.246;21.054;2023-07-09T14:16:44;6.23;;;2.57;;
30896;SDS011;64229;52.246;21.054;2023-07-09T14:19:12;6.30;;;2.83;;
30896;SDS011;64229;52.246;21.054;2023-07-09T14:21:39;5.45;;;2.58;;
30896;SDS011;64229;52.246;21.054;2023-07-09T14:24:16;7.07;;;3.27;;
30896;SDS011;64229;52.246;21.054;2023-07-09T14:26:47;5.47;;;2.83;;
30896;SDS011;64229;52.246;21.054;2023-07-09T14:29:13;5.20;;;2.72;;
30896;SDS011;64229;52.246;21.054;2023-07-09T14:31:39;17.52;;;3.95;;
30896;SDS011;64229;52.246;21.054;2023-07-09T14:34:24;6.35;;;3.08;;
30896;SDS011;64229;52.246;21.054;2023-07-09T14:36:55;5.85;;;3.13;;
30896;SDS011;64229;52.246;21.054;2023-07-09T14:39:22;5.05;;;2.72;;
30896;SDS011;64229;52.246;21.054;2023-07-09T14:41:48;6.47;;;2.85;;
30896;SDS011;64229;52.246;21.054;2023-07-09T14:44:22;6.53;;;2.95;;
30896;SDS011;64229;52.246;21.054;2023-07-09T14:46:48;5.68;;;3.15;;
30896;SDS011;64229;52.246;21.054;2023-07-09T14:49:15;5.07;;;2.72;;
30896;SDS011;64229;52.246;21.054;2023-07-09T14:51:41;7.40;;;3.25;;
30896;SDS011;64229;52.246;21.054;2023-07-09T14:54:17;7.83;;;3.23;;
30896;SDS011;64229;52.246;21.054;2023-07-09T14:56:45;6.22;;;3.20;;
30896;SDS011;64229;52.246;21.054;2023-07-09T14:59:11;6.70;;;2.88;;
30896;SDS011;64229;52.246;21.054;2023-07-09T15:01:36;5.03;;;2.70;;
30896;SDS011;64229;52.246;21.054;2023-07-09T15:04:34;6.30;;;2.88;;
30896;SDS011;64229;52.246;21.054;2023-07-09T15:06:55;4.78;;;2.53;;
30896;SDS011;64229;52.246;21.054;2023-07-09T15:09:22;6.97;;;3.13;;
30896;SDS011;64229;52.246;21.054;2023-07-09T15:11:53;7.25;;;2.83;;
30896;SDS011;64229;52.246;21.054;2023-07-09T15:14:20;7.40;;;2.92;;
30896;SDS011;64229;52.246;21.054;2023-07-09T15:16:47;6.07;;;2.80;;
30896;SDS011;64229;52.246;21.054;2023-07-09T15:19:14;5.63;;;2.92;;
30896;SDS011;64229;52.246;21.054;2023-07-09T15:21:42;5.35;;;2.67;;
30896;SDS011;64229;52.246;21.054;2023-07-09T15:24:10;6.63;;;3.47;;
30896;SDS011;64229;52.246;21.054;2023-07-09T15:26:40;4.70;;;2.67;;